Time;durP1;ratioP1;P1;durP2;ratioP2;P2;SDS_P1;SDS_P2;PMS_P1;PMS_P2;Temp;Humidity;BMP_temperature;BMP_pressure;BME280_temperature;BME280_humidity;BME280_pressure;Samples;Min_cycle;Max_cycle;Signal;HPM_P1;HPM_P2
2021/12/30 00:00:55;;;;;;;22.67;4.38;;;8.60;99.90;;;;;;4976830;28;20160;-85
2021/12/30 00:03:21;;;;;;;25.42;4.65;;;7.70;99.90;;;;;;4976344;28;20121;-84
2021/12/30 00:05:47;;;;;;;27.15;4.45;;;7.90;99.90;;;;;;4963239;28;20118;-84
2021/12/30 00:08:13;;;;;;;28.38;4.65;;;7.70;99.90;;;;;;4989341;28;20590;-84
2021/12/30 00:10:40;;;;;;;23.08;4.18;;;8.50;99.90;;;;;;4993775;28;20038;-83
2021/12/30 00:13:06;;;;;;;21.42;4.20;;;8.10;99.90;;;;;;4993456;28;20071;-84
2021/12/30 00:15:32;;;;;;;25.65;5.07;;;8.10;99.90;;;;;;4963163;28;20153;-84
2021/12/30 00:17:59;;;;;;;23.73;4.45;;;8.50;99.90;;;;;;4984432;28;20045;-84
2021/12/30 00:20:26;;;;;;;24.50;5.00;;;;;;;;;;4985616;28;20056;-84
2021/12/30 00:22:52;;;;;;;31.58;5.10;;;7.70;99.90;;;;;;5003131;28;20155;-85
2021/12/30 00:25:18;;;;;;;25.92;4.65;;;8.40;99.90;;;;;;4995642;28;20136;-84
2021/12/30 00:27:44;;;;;;;24.98;4.85;;;7.70;99.90;;;;;;4980403;28;20118;-84
2021/12/30 00:30:12;;;;;;;25.25;4.43;;;7.80;99.90;;;;;;4980102;28;20510;-84
2021/12/30 00:32:37;;;;;;;24.98;4.35;;;7.60;99.90;;;;;;4979885;28;20033;-85
2021/12/30 00:35:04;;;;;;;35.15;5.93;;;7.60;99.90;;;;;;5006662;28;20033;-84
2021/12/30 00:37:29;;;;;;;26.60;5.40;;;7.60;99.90;;;;;;5013470;28;20454;-84
2021/12/30 00:39:55;;;;;;;32.28;5.15;;;7.60;99.90;;;;;;4994316;28;20065;-84
2021/12/30 00:42:21;;;;;;;33.72;5.47;;;7.60;99.90;;;;;;4995742;28;20041;-85
2021/12/30 00:44:47;;;;;;;31.10;5.35;;;9.00;99.90;;;;;;4963185;28;20048;-85
2021/12/30 00:47:12;;;;;;;33.20;5.35;;;7.60;99.90;;;;;;4978141;28;20587;-84
2021/12/30 00:49:38;;;;;;;39.20;6.13;;;7.60;99.90;;;;;;4993812;28;20510;-84
2021/12/30 00:52:04;;;;;;;30.25;5.60;;;7.60;99.90;;;;;;4978886;28;20512;-84
2021/12/30 00:54:30;;;;;;;31.80;6.13;;;7.60;99.90;;;;;;5019778;28;20049;-84
2021/12/30 00:56:56;;;;;;;36.85;6.38;;;8.60;99.90;;;;;;4995158;28;20038;-84
2021/12/30 00:59:22;;;;;;;35.35;5.68;;;7.60;99.90;;;;;;4995428;28;20048;-85
2021/12/30 01:01:48;;;;;;;33.83;6.38;;;7.80;99.90;;;;;;4995340;28;20056;-84
2021/12/30 01:04:14;;;;;;;33.85;5.80;;;7.60;99.90;;;;;;4995353;28;20393;-85
2021/12/30 01:06:40;;;;;;;31.33;5.65;;;7.60;99.90;;;;;;4994851;28;20029;-84
2021/12/30 01:09:06;;;;;;;34.40;5.60;;;7.50;99.90;;;;;;5012014;28;20052;-85
2021/12/30 01:11:32;;;;;;;38.83;7.15;;;8.30;99.90;;;;;;4995714;28;20037;-84
2021/12/30 01:14:03;;;;;;;39.42;6.43;;;7.70;99.90;;;;;;4994490;28;20033;-84
2021/12/30 01:16:31;;;;;;;37.83;5.70;;;7.50;99.90;;;;;;4979775;28;20063;-84
2021/12/30 01:19:24;;;;;;;36.28;6.22;;;7.60;99.90;;;;;;5000278;28;20172;-84
2021/12/30 01:21:47;;;;;;;40.53;6.57;;;8.50;99.90;;;;;;4991582;28;20053;-84
2021/12/30 01:24:13;;;;;;;44.97;6.05;;;8.30;99.90;;;;;;4994627;28;20048;-85
2021/12/30 01:26:38;;;;;;;40.35;5.90;;;7.70;99.90;;;;;;4975889;28;20112;-85
2021/12/30 01:29:04;;;;;;;47.92;6.45;;;7.40;99.90;;;;;;4991793;28;20674;-84
2021/12/30 01:31:30;;;;;;;42.17;6.78;;;7.90;99.90;;;;;;4975700;28;20042;-86
2021/12/30 01:33:56;;;;;;;44.42;6.30;;;7.60;99.90;;;;;;4975682;28;20038;-84
2021/12/30 01:36:22;;;;;;;33.90;6.03;;;7.40;99.90;;;;;;4959337;28;20066;-84
2021/12/30 01:38:49;;;;;;;42.92;6.88;;;7.40;99.90;;;;;;4991966;28;20076;-84
2021/12/30 01:41:15;;;;;;;35.35;6.65;;;7.50;99.90;;;;;;4974911;28;20077;-83
2021/12/30 01:43:41;;;;;;;35.90;6.35;;;8.00;99.90;;;;;;4975204;28;20068;-84
2021/12/30 01:46:08;;;;;;;35.78;6.43;;;8.40;99.90;;;;;;4957736;28;20487;-84
2021/12/30 01:48:35;;;;;;;36.72;6.35;;;8.50;99.90;;;;;;4985261;28;20037;-84
2021/12/30 01:51:01;;;;;;;40.45;6.18;;;8.80;99.90;;;;;;4992026;28;20049;-84
2021/12/30 01:53:27;;;;;;;47.63;6.65;;;7.50;99.90;;;;;;4976098;28;20033;-84
2021/12/30 01:55:53;;;;;;;44.28;6.82;;;7.50;99.90;;;;;;4958518;28;20487;-85
2021/12/30 01:58:19;;;;;;;43.38;7.55;;;7.50;99.90;;;;;;4975351;28;20042;-84
2021/12/30 02:00:48;;;;;;;43.25;6.10;;;7.40;99.90;;;;;;4974323;28;20122;-84
2021/12/30 02:03:14;;;;;;;39.35;6.85;;;7.40;99.90;;;;;;4991675;28;20053;-84
2021/12/30 02:05:41;;;;;;;42.88;6.85;;;7.40;99.90;;;;;;4975352;28;20034;-84
2021/12/30 02:08:08;;;;;;;37.83;5.78;;;8.10;99.90;;;;;;4975624;28;20096;-84
2021/12/30 02:10:35;;;;;;;48.55;7.30;;;7.50;99.90;;;;;;4975797;28;20404;-84
2021/12/30 02:13:01;;;;;;;49.75;7.70;;;8.00;99.90;;;;;;4991792;28;20050;-85
2021/12/30 02:15:27;;;;;;;42.55;7.40;;;7.80;99.90;;;;;;4975034;28;20057;-85
2021/12/30 02:17:54;;;;;;;36.38;6.63;;;8.60;99.90;;;;;;4978820;28;20107;-85
2021/12/30 02:20:54;;;;;;;38.40;7.18;;;7.40;99.90;;;;;;5010903;28;20050;-84
2021/12/30 02:23:23;;;;;;;49.05;7.00;;;7.60;99.90;;;;;;4972656;28;20120;-84
2021/12/30 02:25:51;;;;;;;41.88;6.03;;;7.40;99.90;;;;;;4995729;28;20453;-84
2021/12/30 02:28:19;;;;;;;36.97;7.00;;;7.40;99.90;;;;;;5014612;28;20106;-84
2021/12/30 02:30:46;;;;;;;38.60;6.78;;;7.40;99.90;;;;;;4982663;28;20052;-84
2021/12/30 02:33:12;;;;;;;41.22;6.82;;;7.90;99.90;;;;;;4982075;28;20084;-84
2021/12/30 02:35:38;;;;;;;38.00;6.00;;;7.40;99.90;;;;;;4997691;28;20637;-85
2021/12/30 02:38:05;;;;;;;34.65;6.13;;;7.40;99.90;;;;;;4999665;28;20087;-84
2021/12/30 02:40:43;;;;;;;44.75;6.90;;;7.30;99.90;;;;;;4991497;28;20033;-84
2021/12/30 02:43:14;;;;;;;39.65;6.80;;;8.20;99.90;;;;;;4994854;28;20124;-84
2021/12/30 02:45:41;;;;;;;39.63;5.93;;;7.30;99.90;;;;;;5014127;28;20052;-84
2021/12/30 02:48:15;;;;;;;35.30;6.32;;;7.30;99.90;;;;;;5012313;28;20048;-86
2021/12/30 02:50:43;;;;;;;44.17;7.25;;;7.30;99.90;;;;;;5013909;28;20371;-84
2021/12/30 02:53:10;;;;;;;34.58;6.47;;;7.30;99.90;;;;;;4997924;28;20099;-84
2021/12/30 02:55:36;;;;;;;47.85;7.47;;;8.60;99.90;;;;;;4997870;28;20044;-84
2021/12/30 02:58:01;;;;;;;39.28;6.80;;;7.30;99.90;;;;;;5015641;28;20041;-84
2021/12/30 03:00:29;;;;;;;38.78;7.53;;;7.70;99.90;;;;;;5013242;28;20033;-85
2021/12/30 03:02:56;;;;;;;41.65;6.65;;;7.30;99.90;;;;;;5014036;28;20040;-85
2021/12/30 03:05:24;;;;;;;43.75;7.05;;;7.80;99.90;;;;;;5013712;28;20041;-84
2021/12/30 03:07:50;;;;;;;42.35;7.35;;;8.20;99.90;;;;;;4982098;28;20061;-84
2021/12/30 03:10:23;;;;;;;43.05;7.25;;;7.40;99.90;;;;;;5022176;28;20041;-85
2021/12/30 03:12:53;;;;;;;;;;;7.40;99.90;;;;;;5014449;28;20045;-84
2021/12/30 03:15:19;;;;;;;36.63;5.97;;;8.30;99.90;;;;;;4997459;28;20027;-84
2021/12/30 03:17:46;;;;;;;39.88;6.95;;;7.80;99.90;;;;;;5028110;28;20045;-83
2021/12/30 03:20:12;;;;;;;40.63;7.80;;;7.50;99.90;;;;;;4994539;28;20041;-84
2021/12/30 03:22:43;;;;;;;44.85;8.45;;;7.50;99.90;;;;;;4975096;28;20048;-85
2021/12/30 03:25:11;;;;;;;40.42;7.45;;;8.80;99.90;;;;;;4976867;28;20080;-84
2021/12/30 03:27:37;;;;;;;38.20;8.05;;;7.60;99.90;;;;;;4977363;28;20037;-84
2021/12/30 03:30:07;;;;;;;45.25;8.57;;;8.70;99.90;;;;;;4995943;28;20083;-84
2021/12/30 03:32:32;;;;;;;34.42;7.38;;;7.70;99.90;;;;;;4998273;28;20092;-84
2021/12/30 03:34:58;;;;;;;41.70;8.10;;;7.70;99.90;;;;;;4982870;28;20046;-84
2021/12/30 03:37:24;;;;;;;44.45;8.68;;;7.70;99.90;;;;;;4993723;28;20080;-85
2021/12/30 03:39:50;;;;;;;38.03;7.78;;;8.70;99.90;;;;;;4992191;28;20046;-84
2021/12/30 03:42:16;;;;;;;46.72;8.70;;;8.30;99.90;;;;;;4994031;28;20499;-84
2021/12/30 03:44:43;;;;;;;42.85;9.05;;;8.60;99.90;;;;;;4977981;28;20034;-85
2021/12/30 03:47:13;;;;;;;42.05;9.70;;;8.40;99.90;;;;;;4961561;28;20034;-84
2021/12/30 03:49:43;;;;;;;53.30;10.27;;;7.80;99.90;;;;;;4960917;28;20038;-84
2021/12/30 03:52:11;;;;;;;50.28;10.75;;;8.30;99.90;;;;;;4959057;28;20045;-84
2021/12/30 03:54:37;;;;;;;40.13;9.35;;;8.20;99.90;;;;;;4993994;28;20049;-84
2021/12/30 03:57:03;;;;;;;39.63;9.88;;;7.90;99.90;;;;;;4993513;28;20048;-84
2021/12/30 03:59:28;;;;;;;49.17;11.25;;;7.80;99.90;;;;;;4977729;28;20029;-85
2021/12/30 04:01:54;;;;;;;49.28;10.52;;;7.90;99.90;;;;;;4960737;28;20399;-84
2021/12/30 04:04:20;;;;;;;48.55;10.52;;;8.70;99.90;;;;;;4974252;28;20092;-85
2021/12/30 04:06:46;;;;;;;50.88;10.88;;;7.90;99.90;;;;;;4975100;28;20033;-85
2021/12/30 04:09:12;;;;;;;51.75;10.10;;;8.00;99.90;;;;;;4961829;28;20045;-84
2021/12/30 04:11:37;;;;;;;41.33;11.05;;;8.70;99.90;;;;;;5004930;28;20069;-85
2021/12/30 04:14:04;;;;;;;43.58;10.90;;;9.10;99.90;;;;;;4974014;28;20069;-85
2021/12/30 04:16:32;;;;;;;44.35;9.00;;;8.90;99.90;;;;;;4989308;28;20034;-85
2021/12/30 04:18:58;;;;;;;55.08;10.27;;;8.10;99.90;;;;;;4993404;28;20062;-85
2021/12/30 04:21:24;;;;;;;57.13;11.20;;;8.10;99.90;;;;;;4960684;28;20096;-85
2021/12/30 04:23:50;;;;;;;41.72;9.50;;;9.00;99.90;;;;;;4976995;28;20092;-85
2021/12/30 04:26:16;;;;;;;44.45;10.40;;;8.10;99.90;;;;;;4992736;28;20038;-84
2021/12/30 04:28:42;;;;;;;40.45;10.60;;;8.30;99.90;;;;;;4993700;28;20100;-84
2021/12/30 04:31:07;;;;;;;43.28;10.45;;;8.10;99.90;;;;;;4941938;28;20117;-85
2021/12/30 04:33:33;;;;;;;48.05;10.25;;;8.40;99.90;;;;;;4960443;28;20042;-84
2021/12/30 04:35:59;;;;;;;52.28;10.93;;;8.20;99.90;;;;;;4960652;28;20104;-85
2021/12/30 04:38:31;;;;;;;53.60;10.68;;;8.20;99.90;;;;;;4979016;28;20123;-84
2021/12/30 04:40:57;;;;;;;53.35;10.95;;;8.20;99.90;;;;;;5010382;28;20041;-85
2021/12/30 04:43:23;;;;;;;51.08;10.07;;;8.20;99.90;;;;;;4986914;28;20033;-85
2021/12/30 04:45:49;;;;;;;54.72;11.30;;;8.20;99.90;;;;;;4960567;28;20042;-85
2021/12/30 04:48:16;;;;;;;45.65;10.25;;;8.60;99.90;;;;;;4959549;28;20041;-84
2021/12/30 04:50:45;;;;;;;48.20;11.35;;;8.30;99.90;;;;;;4975233;28;20044;-85
2021/12/30 04:53:11;;;;;;;49.25;11.13;;;8.30;99.90;;;;;;4992989;28;20081;-85
2021/12/30 04:55:37;;;;;;;55.80;10.18;;;8.40;99.90;;;;;;4992882;28;20572;-84
2021/12/30 04:58:04;;;;;;;49.35;10.48;;;8.40;99.90;;;;;;4975440;28;20045;-85
2021/12/30 05:00:31;;;;;;;50.85;10.82;;;8.40;99.90;;;;;;4954071;28;20096;-85
2021/12/30 05:03:12;;;;;;;48.22;10.90;;;8.40;99.90;;;;;;4957693;28;20037;-84
2021/12/30 05:05:50;;;;;;;52.75;10.43;;;9.40;99.90;;;;;;4976339;28;20467;-84
2021/12/30 05:08:21;;;;;;;52.70;10.20;;;8.40;99.90;;;;;;4976486;28;20042;-84
2021/12/30 05:10:49;;;;;;;44.63;9.93;;;8.40;99.90;;;;;;4992772;28;20511;-85
2021/12/30 05:13:15;;;;;;;45.20;10.60;;;9.20;99.90;;;;;;4992613;28;20046;-85
2021/12/30 05:15:41;;;;;;;56.10;11.52;;;8.40;99.90;;;;;;4972828;28;20042;-85
2021/12/30 05:18:09;;;;;;;49.80;10.60;;;8.50;99.90;;;;;;4975403;28;20097;-84
2021/12/30 05:20:36;;;;;;;45.58;10.45;;;8.50;99.90;;;;;;4960561;28;20037;-85
2021/12/30 05:23:03;;;;;;;47.72;11.48;;;8.50;99.90;;;;;;4975974;28;20076;-85
2021/12/30 05:25:30;;;;;;;52.35;11.27;;;8.60;99.90;;;;;;4975162;28;20077;-85
2021/12/30 05:27:56;;;;;;;50.65;11.10;;;8.60;99.90;;;;;;4960456;28;20069;-85
2021/12/30 05:30:24;;;;;;;54.83;11.45;;;9.30;99.90;;;;;;4976320;28;20088;-85
2021/12/30 05:32:52;;;;;;;48.40;12.88;;;10.00;99.90;;;;;;4976147;28;20491;-85
2021/12/30 05:35:18;;;;;;;54.70;12.75;;;8.70;99.90;;;;;;4976015;28;20049;-85
2021/12/30 05:37:44;;;;;;;50.38;13.45;;;8.80;99.90;;;;;;4976296;28;20045;-84
2021/12/30 05:40:14;;;;;;;68.30;15.10;;;9.10;99.90;;;;;;4961097;28;20045;-84
2021/12/30 05:42:40;;;;;;;54.58;14.20;;;8.90;99.90;;;;;;4973095;28;20041;-85
2021/12/30 05:45:07;;;;;;;69.70;15.65;;;9.00;99.90;;;;;;4956955;28;20038;-85
2021/12/30 05:47:33;;;;;;;64.47;15.93;;;9.00;99.90;;;;;;4991856;28;20037;-85
2021/12/30 05:50:02;;;;;;;61.75;16.83;;;9.40;99.90;;;;;;4976852;28;20042;-84
2021/12/30 05:52:28;;;;;;;47.80;15.60;;;9.10;99.90;;;;;;4980471;28;20064;-85
2021/12/30 05:54:53;;;;;;;66.90;15.88;;;9.50;99.90;;;;;;4991798;28;20495;-85
2021/12/30 05:57:19;;;;;;;56.92;15.73;;;9.80;99.90;;;;;;4974828;28;20431;-85
2021/12/30 05:59:45;;;;;;;58.45;15.93;;;9.80;99.90;;;;;;4956287;28;20034;-85
2021/12/30 06:02:10;;;;;;;56.28;14.68;;;9.80;99.90;;;;;;4946252;28;20082;-84
2021/12/30 06:04:36;;;;;;;47.67;14.27;;;9.60;99.90;;;;;;4979572;28;20077;-85
2021/12/30 06:07:02;;;;;;;56.80;15.20;;;9.80;99.90;;;;;;4973566;28;20045;-85
2021/12/30 06:09:28;;;;;;;55.88;14.13;;;9.40;99.90;;;;;;4976271;28;20040;-85
2021/12/30 06:11:53;;;;;;;50.95;14.30;;;9.40;99.90;;;;;;4972832;28;20034;-85
2021/12/30 06:14:19;;;;;;;33.28;12.23;;;9.80;99.90;;;;;;4979042;28;20073;-85
2021/12/30 06:16:45;;;;;;;45.30;13.32;;;9.40;99.90;;;;;;4979043;28;20041;-84
2021/12/30 06:19:10;;;;;;;32.75;11.77;;;9.50;99.90;;;;;;4979341;28;20136;-85
2021/12/30 06:21:36;;;;;;;38.20;11.00;;;9.50;99.90;;;;;;4963131;28;20056;-85
2021/12/30 06:24:03;;;;;;;29.70;11.07;;;9.50;99.90;;;;;;4979606;28;20042;-84
2021/12/30 06:26:28;;;;;;;33.22;11.13;;;9.50;99.90;;;;;;4963337;28;20041;-84
2021/12/30 06:28:54;;;;;;;28.63;10.30;;;9.60;99.90;;;;;;4980583;28;20054;-85
2021/12/30 06:31:20;;;;;;;25.00;9.68;;;9.60;99.90;;;;;;4959959;28;20089;-85
2021/12/30 06:33:45;;;;;;;26.63;9.65;;;10.50;99.90;;;;;;4975645;28;20048;-84
2021/12/30 06:36:11;;;;;;;26.30;9.95;;;9.70;99.90;;;;;;5011786;28;20053;-84
2021/12/30 06:38:37;;;;;;;25.23;9.27;;;9.70;99.90;;;;;;4983515;28;20046;-85
2021/12/30 06:41:04;;;;;;;24.25;9.73;;;9.80;99.90;;;;;;4979067;28;20095;-85
2021/12/30 06:43:30;;;;;;;29.27;10.48;;;9.70;99.90;;;;;;5013542;28;20046;-85
2021/12/30 06:45:56;;;;;;;29.95;10.57;;;9.80;99.90;;;;;;4963197;28;20033;-85
2021/12/30 06:48:21;;;;;;;30.20;10.98;;;9.80;99.90;;;;;;4994678;28;20046;-85
2021/12/30 06:50:54;;;;;;;31.90;11.13;;;9.80;99.90;;;;;;4974236;28;20034;-85
2021/12/30 06:53:23;;;;;;;35.03;11.83;;;9.80;99.90;;;;;;4994495;28;20069;-85
2021/12/30 06:55:51;;;;;;;32.72;11.32;;;9.90;99.90;;;;;;4978773;28;20033;-85
2021/12/30 06:58:17;;;;;;;37.47;11.73;;;11.40;99.90;;;;;;5005061;28;20037;-85
2021/12/30 07:00:44;;;;;;;34.33;11.05;;;9.90;99.90;;;;;;4994299;28;20038;-85
2021/12/30 07:03:09;;;;;;;36.90;11.40;;;9.90;99.90;;;;;;4962460;28;20060;-85
2021/12/30 07:05:35;;;;;;;36.15;11.13;;;11.10;99.90;;;;;;4965349;28;20494;-85
2021/12/30 07:08:01;;;;;;;34.10;10.68;;;10.60;99.90;;;;;;4972004;28;20049;-84
2021/12/30 07:10:28;;;;;;;34.40;11.40;;;10.00;99.90;;;;;;4980381;28;20696;-84
2021/12/30 07:12:54;;;;;;;32.90;11.05;;;10.00;99.90;;;;;;4966525;28;20402;-85
2021/12/30 07:15:20;;;;;;;32.65;10.88;;;10.00;99.90;;;;;;4995994;28;20038;-85
2021/12/30 07:17:46;;;;;;;32.00;10.68;;;10.10;99.90;;;;;;4959596;28;20099;-85
2021/12/30 07:20:13;;;;;;;31.30;11.07;;;10.10;99.90;;;;;;4960507;28;20042;-85
2021/12/30 07:22:40;;;;;;;32.55;11.00;;;10.30;99.90;;;;;;4962441;28;20042;-85
2021/12/30 07:25:07;;;;;;;33.13;11.30;;;10.10;99.90;;;;;;4978345;28;20113;-85
2021/12/30 07:27:33;;;;;;;32.08;10.88;;;10.20;99.90;;;;;;4975964;28;20030;-85
2021/12/30 07:29:59;;;;;;;35.20;11.02;;;10.10;99.90;;;;;;4982166;28;20054;-84
2021/12/30 07:32:25;;;;;;;39.22;11.73;;;10.30;99.90;;;;;;4977523;28;20042;-84
2021/12/30 07:34:51;;;;;;;34.08;11.05;;;10.60;99.90;;;;;;4962548;28;20055;-84
2021/12/30 07:37:18;;;;;;;33.20;10.30;;;10.20;99.90;;;;;;4961718;28;20486;-85
2021/12/30 07:39:45;;;;;;;34.15;11.48;;;10.20;99.90;;;;;;4957319;28;20045;-85
2021/12/30 07:42:12;;;;;;;39.20;11.45;;;10.30;99.90;;;;;;4976255;28;20049;-85
2021/12/30 07:44:38;;;;;;;37.17;11.10;;;10.30;99.90;;;;;;4960021;28;20073;-84
2021/12/30 07:47:06;;;;;;;32.17;10.20;;;11.80;99.90;;;;;;4977915;28;20042;-85
2021/12/30 07:49:32;;;;;;;26.67;9.63;;;10.30;99.90;;;;;;4978465;28;20528;-84
2021/12/30 07:51:59;;;;;;;31.58;10.52;;;10.30;99.90;;;;;;4975089;28;20473;-84
2021/12/30 07:54:25;;;;;;;28.20;9.27;;;11.00;99.90;;;;;;4959254;28;20479;-85
2021/12/30 07:56:51;;;;;;;23.67;8.70;;;10.90;99.90;;;;;;4957754;28;20050;-84
2021/12/30 07:59:16;;;;;;;27.40;9.02;;;10.40;99.90;;;;;;4980488;28;20171;-85
2021/12/30 08:01:42;;;;;;;23.20;8.85;;;10.40;99.90;;;;;;4974759;28;20411;-85
2021/12/30 08:04:08;;;;;;;21.30;7.85;;;10.40;99.90;;;;;;4965173;28;20045;-84
2021/12/30 08:06:34;;;;;;;21.10;7.43;;;10.90;99.90;;;;;;4963930;28;20038;-84
2021/12/30 08:09:00;;;;;;;16.95;6.68;;;10.40;99.90;;;;;;4974750;28;20068;-84
2021/12/30 08:11:26;;;;;;;14.93;6.00;;;10.50;99.90;;;;;;4993964;28;20045;-84
2021/12/30 08:13:52;;;;;;;13.82;5.10;;;10.50;99.90;;;;;;4958636;28;20046;-84
2021/12/30 08:16:18;;;;;;;11.60;4.90;;;10.50;99.90;;;;;;4971254;28;20038;-84
2021/12/30 08:18:44;;;;;;;10.55;4.03;;;10.50;99.90;;;;;;5009816;28;20542;-84
2021/12/30 08:21:11;;;;;;;13.50;4.25;;;10.50;99.90;;;;;;4993247;28;20109;-84
2021/12/30 08:23:37;;;;;;;13.32;4.03;;;10.60;99.90;;;;;;4977718;28;20033;-84
2021/12/30 08:26:04;;;;;;;7.85;3.10;;;10.60;99.90;;;;;;4980124;28;20033;-84
2021/12/30 08:28:30;;;;;;;8.85;3.33;;;10.50;99.90;;;;;;4992797;28;20103;-84
2021/12/30 08:30:56;;;;;;;7.55;2.75;;;10.60;99.90;;;;;;4957615;28;20038;-84
2021/12/30 08:33:22;;;;;;;9.38;3.20;;;10.90;99.90;;;;;;4995541;28;20042;-84
2021/12/30 08:35:49;;;;;;;7.78;2.70;;;11.40;99.90;;;;;;4978139;28;20152;-84
2021/12/30 08:38:16;;;;;;;7.60;2.67;;;10.70;99.90;;;;;;4992529;28;20558;-84
2021/12/30 08:40:42;;;;;;;7.80;2.83;;;10.70;99.90;;;;;;4960925;28;20507;-84
2021/12/30 08:43:10;;;;;;;8.73;2.92;;;10.70;99.90;;;;;;4979374;28;20037;-84
2021/12/30 08:45:36;;;;;;;8.38;2.83;;;10.90;99.90;;;;;;4960652;28;20034;-84
2021/12/30 08:48:03;;;;;;;8.45;2.70;;;10.70;99.90;;;;;;4977596;28;20038;-85
2021/12/30 08:50:29;;;;;;;9.35;3.00;;;10.80;99.90;;;;;;4976301;28;20053;-84
2021/12/30 08:52:55;;;;;;;9.23;3.45;;;10.80;99.90;;;;;;4989169;28;20046;-84
2021/12/30 08:55:20;;;;;;;12.55;3.90;;;10.90;99.90;;;;;;4941463;28;20038;-84
2021/12/30 08:57:48;;;;;;;19.15;5.45;;;10.80;99.90;;;;;;4961010;28;20112;-85
2021/12/30 09:00:26;;;;;;;12.88;5.30;;;10.80;99.90;;;;;;4975618;28;20045;-84
2021/12/30 09:02:54;;;;;;;16.25;6.18;;;10.80;99.90;;;;;;4989409;28;20189;-85
2021/12/30 09:05:20;;;;;;;14.57;6.70;;;10.80;99.90;;;;;;4975732;28;20037;-85
2021/12/30 09:07:47;;;;;;;16.10;6.97;;;10.80;99.90;;;;;;4973925;28;20705;-84
2021/12/30 09:10:14;;;;;;;16.65;6.85;;;10.80;99.90;;;;;;4983167;28;20052;-86
2021/12/30 09:12:43;;;;;;;16.38;6.90;;;10.80;99.90;;;;;;4992530;28;20121;-88
2021/12/30 09:15:12;;;;;;;16.70;7.50;;;10.80;99.90;;;;;;4991612;28;20055;-88
2021/12/30 09:17:39;;;;;;;20.85;7.82;;;10.90;99.90;;;;;;4994976;28;20050;-86
2021/12/30 09:20:08;;;;;;;18.77;7.97;;;10.90;99.90;;;;;;4986859;28;20080;-89
2021/12/30 09:22:35;;;;;;;18.55;7.50;;;10.90;99.90;;;;;;4996160;28;20092;-88
2021/12/30 09:25:05;;;;;;;15.82;6.78;;;10.90;99.90;;;;;;5004505;28;20039;-87
2021/12/30 09:27:35;;;;;;;19.00;7.47;;;10.90;99.90;;;;;;4995880;28;20390;-87
2021/12/30 09:30:02;;;;;;;20.98;7.85;;;10.90;99.90;;;;;;5000184;28;20115;-85
2021/12/30 09:32:28;;;;;;;19.38;7.70;;;11.00;99.90;;;;;;5012611;28;20081;-89
2021/12/30 09:34:53;;;;;;;17.95;6.68;;;11.00;99.90;;;;;;4988726;28;20075;-87
2021/12/30 09:37:19;;;;;;;18.95;6.72;;;11.00;99.90;;;;;;5001732;28;20049;-89
2021/12/30 09:39:46;;;;;;;17.98;6.90;;;11.10;99.90;;;;;;4980577;28;20033;-87
2021/12/30 09:42:13;;;;;;;21.67;6.43;;;12.10;99.90;;;;;;5023522;28;20099;-89
2021/12/30 09:44:42;;;;;;;15.23;5.82;;;11.10;99.90;;;;;;5017283;28;20034;-88
2021/12/30 09:47:08;;;;;;;17.50;6.28;;;11.10;99.90;;;;;;4980669;28;20072;-88
2021/12/30 09:49:34;;;;;;;16.05;5.85;;;11.10;99.90;;;;;;4997546;28;20072;-86
2021/12/30 09:52:03;;;;;;;15.88;5.75;;;11.10;99.90;;;;;;4979491;28;20461;-87
2021/12/30 09:54:29;;;;;;;17.48;6.70;;;11.10;99.90;;;;;;4992530;28;20037;-87
2021/12/30 09:56:54;;;;;;;18.52;6.60;;;11.10;99.90;;;;;;4985970;28;20104;-87
2021/12/30 09:59:23;;;;;;;20.33;7.28;;;11.20;99.90;;;;;;4995950;28;20558;-86
2021/12/30 10:01:50;;;;;;;18.05;6.40;;;11.20;99.90;;;;;;5010766;28;20033;-87
2021/12/30 10:04:16;;;;;;;16.55;6.28;;;11.20;99.90;;;;;;4995832;28;20075;-87
2021/12/30 10:06:49;;;;;;;21.88;6.25;;;11.20;99.90;;;;;;4985230;28;20049;-87
2021/12/30 10:09:16;;;;;;;;;;;11.20;99.90;;;;;;4991261;28;20120;-88
2021/12/30 10:11:52;;;;;;;20.45;6.30;;;11.30;99.90;;;;;;5012416;28;19917;-88
2021/12/30 10:14:33;;;;;;;20.40;7.13;;;11.30;99.90;;;;;;5009398;28;20045;-86
2021/12/30 10:17:14;;;;;;;24.52;7.05;;;11.30;99.90;;;;;;4996981;28;20041;-84
2021/12/30 10:19:41;;;;;;;22.42;7.03;;;11.30;99.90;;;;;;4982003;28;20087;-85
2021/12/30 10:22:15;;;;;;;22.90;7.43;;;11.30;99.90;;;;;;4975520;28;20034;-86
2021/12/30 10:24:42;;;;;;;24.33;7.50;;;11.40;99.90;;;;;;4991866;28;20065;-86
2021/12/30 10:27:08;;;;;;;18.15;7.78;;;12.00;99.90;;;;;;4973430;28;20026;-87
2021/12/30 10:29:44;;;;;;;19.15;7.22;;;11.80;99.90;;;;;;4960939;28;20096;-87
2021/12/30 10:32:36;;;;;;;22.27;7.38;;;11.30;99.90;;;;;;4973767;28;20117;-88
2021/12/30 10:35:20;;;;;;;25.65;7.95;;;11.30;99.90;;;;;;4966918;28;20406;-86
2021/12/30 10:37:46;;;;;;;27.10;8.10;;;11.30;99.90;;;;;;4979287;28;20061;-88
2021/12/30 10:40:27;;;;;;;26.17;7.97;;;11.30;99.90;;;;;;4995010;28;20034;-87
2021/12/30 10:43:30;;;;;;;23.05;7.63;;;11.30;99.90;;;;;;5003724;28;20656;-87
2021/12/30 10:46:21;;;;;;;19.67;6.80;;;11.30;99.90;;;;;;4975835;28;20038;-87
2021/12/30 10:49:09;;;;;;;20.58;6.90;;;11.30;99.90;;;;;;4982790;28;20029;-87
2021/12/30 10:51:37;;;;;;;22.42;6.95;;;11.30;99.90;;;;;;4973764;28;20050;-87
2021/12/30 10:54:28;;;;;;;22.60;6.57;;;11.30;99.90;;;;;;4976765;28;20053;-87
2021/12/30 10:57:07;;;;;;;29.27;7.13;;;11.30;99.90;;;;;;4992094;28;20435;-87
2021/12/30 10:59:48;;;;;;;27.52;6.80;;;11.30;99.90;;;;;;4969455;28;20042;-87
2021/12/30 11:02:21;;;;;;;25.50;8.07;;;11.30;99.90;;;;;;4996203;28;20046;-88
2021/12/30 11:05:04;;;;;;;26.13;7.20;;;11.30;99.90;;;;;;4987551;28;20046;-87
2021/12/30 11:07:51;;;;;;;27.52;8.07;;;11.30;99.90;;;;;;5009128;28;20033;-88
2021/12/30 11:10:32;;;;;;;27.38;7.57;;;11.30;99.90;;;;;;4995219;28;20125;-91
2021/12/30 11:13:13;;;;;;;30.50;7.40;;;11.30;99.90;;;;;;4980808;28;20126;-86
2021/12/30 11:15:40;;;;;;;28.08;8.32;;;11.30;99.90;;;;;;4978019;28;20064;-86
2021/12/30 11:18:10;;;;;;;25.85;7.00;;;11.30;99.90;;;;;;4993598;28;20058;-87
2021/12/30 11:20:41;;;;;;;30.25;8.00;;;11.30;99.90;;;;;;4961955;28;20069;-90
2021/12/30 11:23:07;;;;;;;32.30;8.45;;;11.30;99.90;;;;;;4991380;28;20124;-89
2021/12/30 11:25:33;;;;;;;31.33;7.72;;;11.30;99.90;;;;;;4971644;28;20675;-87
2021/12/30 11:28:02;;;;;;;34.42;8.82;;;11.30;99.90;;;;;;4962335;28;20430;-87
2021/12/30 11:30:27;;;;;;;33.38;9.23;;;11.30;99.90;;;;;;4994877;28;20046;-88
2021/12/30 11:32:53;;;;;;;34.10;8.38;;;11.30;99.90;;;;;;4978392;28;20081;-87
2021/12/30 11:35:22;;;;;;;40.95;8.63;;;11.30;99.90;;;;;;4982394;28;20379;-89
2021/12/30 11:37:48;;;;;;;35.90;8.95;;;11.40;99.90;;;;;;4983477;28;20364;-87
2021/12/30 11:40:21;;;;;;;35.78;8.30;;;11.70;99.90;;;;;;4993823;28;20116;-87
2021/12/30 11:42:57;;;;;;;31.02;7.63;;;11.30;99.90;;;;;;4971275;28;20034;-88
2021/12/30 11:45:28;;;;;;;39.03;8.55;;;11.30;99.90;;;;;;4995331;28;20102;-86
2021/12/30 11:47:56;;;;;;;34.92;8.45;;;11.30;99.90;;;;;;4976899;28;20038;-87
2021/12/30 11:50:30;;;;;;;36.85;8.98;;;11.30;99.90;;;;;;4975511;28;20046;-86
2021/12/30 11:53:23;;;;;;;38.58;9.27;;;11.30;99.90;;;;;;4990133;28;20038;-88
2021/12/30 11:55:57;;;;;;;37.42;8.68;;;11.30;99.90;;;;;;5011870;28;20085;-88
2021/12/30 11:58:29;;;;;;;46.45;10.35;;;11.30;99.90;;;;;;4976698;28;20035;-87
2021/12/30 12:01:13;;;;;;;35.17;8.10;;;11.40;99.90;;;;;;4982433;28;20041;-88
2021/12/30 12:03:53;;;;;;;38.22;7.88;;;11.30;99.90;;;;;;4981547;28;20046;-88
2021/12/30 12:06:28;;;;;;;39.30;8.75;;;11.30;99.90;;;;;;5008766;28;20045;-89
2021/12/30 12:09:07;;;;;;;39.35;8.77;;;11.50;99.90;;;;;;4975743;28;20035;-88
2021/12/30 12:11:41;;;;;;;32.28;8.07;;;11.30;99.90;;;;;;4976016;28;20033;-87
2021/12/30 12:14:32;;;;;;;35.20;7.70;;;11.40;99.90;;;;;;4977826;28;20044;-88
2021/12/30 12:17:17;;;;;;;31.40;7.00;;;11.30;99.90;;;;;;4990287;28;20638;-90
2021/12/30 12:19:53;;;;;;;38.63;7.32;;;11.30;99.90;;;;;;4991792;28;20075;-87
2021/12/30 12:22:19;;;;;;;38.17;7.07;;;11.30;99.90;;;;;;4986247;28;20125;-88
2021/12/30 12:24:51;;;;;;;38.22;7.70;;;11.40;99.90;;;;;;4974261;28;20117;-88
2021/12/30 12:27:19;;;;;;;36.85;7.07;;;11.40;99.90;;;;;;4991592;28;20049;-86
2021/12/30 12:29:49;;;;;;;34.03;6.57;;;11.40;99.90;;;;;;4983311;28;20117;-88
2021/12/30 12:32:18;;;;;;;29.13;6.13;;;11.40;99.90;;;;;;4978145;28;20042;-86
2021/12/30 12:34:50;;;;;;;30.13;7.85;;;11.40;99.90;;;;;;4977815;28;20065;-89
2021/12/30 12:37:36;;;;;;;34.78;7.45;;;11.40;99.90;;;;;;4994342;28;20034;-89
2021/12/30 12:40:20;;;;;;;34.35;6.55;;;11.40;99.90;;;;;;4998563;28;20053;-89
2021/12/30 12:42:49;;;;;;;31.58;6.47;;;11.40;99.90;;;;;;4978760;28;20458;-90
2021/12/30 12:45:24;;;;;;;35.10;5.88;;;11.40;99.90;;;;;;4988334;28;20061;-89
2021/12/30 12:48:18;;;;;;;30.45;5.90;;;11.40;99.90;;;;;;4991777;28;20041;-89